sensor_id;sensor_type;location;lat;lon;timestamp;P1;durP1;ratioP1;P2;durP2;ratioP2
15331;SDS011;7766;51.534;6.722;2023-04-01T00:00:45;7.03;;;2.70;;
15331;SDS011;7766;51.534;6.722;2023-04-01T00:01:46;3.13;;;1.40;;
15331;SDS011;7766;51.534;6.722;2023-04-01T00:02:47;3.97;;;1.40;;
15331;SDS011;7766;51.534;6.722;2023-04-01T00:03:48;2.27;;;1.20;;
15331;SDS011;7766;51.534;6.722;2023-04-01T00:04:50;3.50;;;1.50;;
15331;SDS011;7766;51.534;6.722;2023-04-01T00:05:51;8.30;;;3.50;;
15331;SDS011;7766;51.534;6.722;2023-04-01T00:06:52;2.67;;;1.27;;
15331;SDS011;7766;51.534;6.722;2023-04-01T00:07:53;3.50;;;1.30;;
15331;SDS011;7766;51.534;6.722;2023-04-01T00:08:54;5.07;;;1.13;;
15331;SDS011;7766;51.534;6.722;2023-04-01T00:09:55;5.40;;;2.07;;
15331;SDS011;7766;51.534;6.722;2023-04-01T00:10:56;3.43;;;1.37;;
15331;SDS011;7766;51.534;6.722;2023-04-01T00:11:58;3.93;;;1.43;;
15331;SDS011;7766;51.534;6.722;2023-04-01T00:12:58;4.73;;;1.20;;
15331;SDS011;7766;51.534;6.722;2023-04-01T00:14:00;2.30;;;1.07;;
15331;SDS011;7766;51.534;6.722;2023-04-01T00:15:01;4.23;;;1.40;;
15331;SDS011;7766;51.534;6.722;2023-04-01T00:16:03;3.87;;;1.07;;
15331;SDS011;7766;51.534;6.722;2023-04-01T00:17:04;4.53;;;1.30;;
15331;SDS011;7766;51.534;6.722;2023-04-01T00:18:05;3.10;;;1.17;;
15331;SDS011;7766;51.534;6.722;2023-04-01T00:19:07;2.30;;;1.30;;
15331;SDS011;7766;51.534;6.722;2023-04-01T00:20:08;3.93;;;1.37;;
15331;SDS011;7766;51.534;6.722;2023-04-01T00:21:09;5.60;;;1.33;;
15331;SDS011;7766;51.534;6.722;2023-04-01T00:22:10;2.40;;;0.97;;
15331;SDS011;7766;51.534;6.722;2023-04-01T00:23:11;4.13;;;1.43;;
15331;SDS011;7766;51.534;6.722;2023-04-01T00:24:13;3.40;;;1.23;;
15331;SDS011;7766;51.534;6.722;2023-04-01T00:25:14;2.83;;;1.07;;
15331;SDS011;7766;51.534;6.722;2023-04-01T00:26:15;3.30;;;1.43;;
15331;SDS011;7766;51.534;6.722;2023-04-01T00:27:19;3.30;;;1.20;;
15331;SDS011;7766;51.534;6.722;2023-04-01T00:28:20;2.13;;;0.70;;
15331;SDS011;7766;51.534;6.722;2023-04-01T00:29:21;2.47;;;1.37;;
15331;SDS011;7766;51.534;6.722;2023-04-01T00:30:24;3.97;;;1.10;;
15331;SDS011;7766;51.534;6.722;2023-04-01T00:31:25;2.60;;;1.00;;
15331;SDS011;7766;51.534;6.722;2023-04-01T00:32:26;3.00;;;0.77;;
15331;SDS011;7766;51.534;6.722;2023-04-01T00:33:27;2.93;;;1.03;;
15331;SDS011;7766;51.534;6.722;2023-04-01T00:34:28;1.87;;;0.87;;
15331;SDS011;7766;51.534;6.722;2023-04-01T00:35:28;4.20;;;1.30;;
15331;SDS011;7766;51.534;6.722;2023-04-01T00:36:30;2.93;;;0.97;;
15331;SDS011;7766;51.534;6.722;2023-04-01T00:37:30;5.20;;;0.93;;
15331;SDS011;7766;51.534;6.722;2023-04-01T00:38:34;3.00;;;0.97;;
15331;SDS011;7766;51.534;6.722;2023-04-01T00:39:36;1.47;;;0.83;;
15331;SDS011;7766;51.534;6.722;2023-04-01T00:40:38;2.43;;;1.00;;
15331;SDS011;7766;51.534;6.722;2023-04-01T00:41:41;2.87;;;1.03;;
15331;SDS011;7766;51.534;6.722;2023-04-01T00:42:42;3.60;;;1.47;;
15331;SDS011;7766;51.534;6.722;2023-04-01T00:43:43;5.00;;;1.03;;
15331;SDS011;7766;51.534;6.722;2023-04-01T00:44:48;7.33;;;1.10;;
15331;SDS011;7766;51.534;6.722;2023-04-01T00:45:52;2.57;;;0.90;;
15331;SDS011;7766;51.534;6.722;2023-04-01T00:46:53;1.90;;;1.07;;
15331;SDS011;7766;51.534;6.722;2023-04-01T00:47:55;2.77;;;1.03;;
15331;SDS011;7766;51.534;6.722;2023-04-01T00:48:59;3.87;;;1.60;;
15331;SDS011;7766;51.534;6.722;2023-04-01T00:50:00;2.43;;;0.87;;
15331;SDS011;7766;51.534;6.722;2023-04-01T00:51:06;2.50;;;0.93;;
15331;SDS011;7766;51.534;6.722;2023-04-01T00:52:15;3.20;;;0.90;;
15331;SDS011;7766;51.534;6.722;2023-04-01T00:53:20;2.07;;;0.80;;
15331;SDS011;7766;51.534;6.722;2023-04-01T00:54:24;2.60;;;1.00;;
15331;SDS011;7766;51.534;6.722;2023-04-01T00:55:26;1.37;;;0.70;;
15331;SDS011;7766;51.534;6.722;2023-04-01T00:56:32;2.80;;;0.87;;
15331;SDS011;7766;51.534;6.722;2023-04-01T00:57:40;1.50;;;0.93;;
15331;SDS011;7766;51.534;6.722;2023-04-01T00:58:46;2.80;;;1.03;;
15331;SDS011;7766;51.534;6.722;2023-04-01T00:59:52;2.07;;;0.80;;
15331;SDS011;7766;51.534;6.722;2023-04-01T01:00:55;2.23;;;0.83;;
15331;SDS011;7766;51.534;6.722;2023-04-01T01:01:59;3.23;;;0.80;;
15331;SDS011;7766;51.534;6.722;2023-04-01T01:03:03;1.70;;;0.70;;
15331;SDS011;7766;51.534;6.722;2023-04-01T01:04:03;4.27;;;0.80;;
15331;SDS011;7766;51.534;6.722;2023-04-01T01:05:05;3.03;;;1.13;;
15331;SDS011;7766;51.534;6.722;2023-04-01T01:06:18;3.80;;;0.90;;
15331;SDS011;7766;51.534;6.722;2023-04-01T01:07:38;1.73;;;0.70;;
15331;SDS011;7766;51.534;6.722;2023-04-01T01:08:47;3.87;;;0.90;;
15331;SDS011;7766;51.534;6.722;2023-04-01T01:10:10;1.90;;;0.60;;
15331;SDS011;7766;51.534;6.722;2023-04-01T01:11:19;1.60;;;0.70;;
15331;SDS011;7766;51.534;6.722;2023-04-01T01:12:39;2.90;;;0.80;;
15331;SDS011;7766;51.534;6.722;2023-04-01T01:13:49;1.37;;;0.70;;
15331;SDS011;7766;51.534;6.722;2023-04-01T01:15:25;1.67;;;0.83;;
15331;SDS011;7766;51.534;6.722;2023-04-01T01:16:48;3.77;;;1.10;;
15331;SDS011;7766;51.534;6.722;2023-04-01T01:17:58;4.03;;;0.90;;
15331;SDS011;7766;51.534;6.722;2023-04-01T01:22:33;3.40;;;0.90;;
15331;SDS011;7766;51.534;6.722;2023-04-01T01:24:17;1.83;;;1.00;;
15331;SDS011;7766;51.534;6.722;2023-04-01T01:25:37;1.33;;;0.70;;
15331;SDS011;7766;51.534;6.722;2023-04-01T01:26:51;0.97;;;0.67;;
15331;SDS011;7766;51.534;6.722;2023-04-01T01:30:05;2.43;;;0.90;;
15331;SDS011;7766;51.534;6.722;2023-04-01T01:33:13;1.27;;;0.70;;
15331;SDS011;7766;51.534;6.722;2023-04-01T01:35:35;0.97;;;0.40;;
15331;SDS011;7766;51.534;6.722;2023-04-01T01:36:47;2.43;;;0.87;;
15331;SDS011;7766;51.534;6.722;2023-04-01T01:37:54;1.70;;;0.70;;
15331;SDS011;7766;51.534;6.722;2023-04-01T01:39:18;2.70;;;0.80;;
15331;SDS011;7766;51.534;6.722;2023-04-01T01:40:26;3.60;;;1.00;;
15331;SDS011;7766;51.534;6.722;2023-04-01T01:41:29;1.60;;;0.80;;
15331;SDS011;7766;51.534;6.722;2023-04-01T01:42:33;1.83;;;0.77;;
15331;SDS011;7766;51.534;6.722;2023-04-01T01:43:38;1.73;;;1.10;;
15331;SDS011;7766;51.534;6.722;2023-04-01T01:44:44;2.20;;;0.90;;
15331;SDS011;7766;51.534;6.722;2023-04-01T01:45:49;2.33;;;0.90;;
15331;SDS011;7766;51.534;6.722;2023-04-01T01:46:54;2.10;;;0.97;;
15331;SDS011;7766;51.534;6.722;2023-04-01T01:47:56;1.30;;;0.80;;
15331;SDS011;7766;51.534;6.722;2023-04-01T01:48:59;4.33;;;0.90;;
15331;SDS011;7766;51.534;6.722;2023-04-01T01:50:03;1.63;;;1.20;;
15331;SDS011;7766;51.534;6.722;2023-04-01T01:51:06;1.73;;;0.80;;
15331;SDS011;7766;51.534;6.722;2023-04-01T01:52:07;3.80;;;1.73;;
15331;SDS011;7766;51.534;6.722;2023-04-01T01:53:09;2.57;;;0.97;;
15331;SDS011;7766;51.534;6.722;2023-04-01T01:54:13;9.20;;;5.93;;
15331;SDS011;7766;51.534;6.722;2023-04-01T01:55:27;3.60;;;1.60;;
15331;SDS011;7766;51.534;6.722;2023-04-01T01:56:36;4.27;;;1.17;;
15331;SDS011;7766;51.534;6.722;2023-04-01T01:57:38;2.10;;;0.90;;
15331;SDS011;7766;51.534;6.722;2023-04-01T01:58:43;0.97;;;0.73;;
15331;SDS011;7766;51.534;6.722;2023-04-01T01:59:47;1.43;;;0.60;;
15331;SDS011;7766;51.534;6.722;2023-04-01T02:00:57;3.10;;;0.90;;
15331;SDS011;7766;51.534;6.722;2023-04-01T02:02:02;3.90;;;1.00;;
15331;SDS011;7766;51.534;6.722;2023-04-01T02:03:07;3.23;;;1.00;;
15331;SDS011;7766;51.534;6.722;2023-04-01T02:04:10;2.00;;;1.30;;
15331;SDS011;7766;51.534;6.722;2023-04-01T02:05:17;5.07;;;1.37;;
15331;SDS011;7766;51.534;6.722;2023-04-01T02:06:23;2.13;;;1.00;;
15331;SDS011;7766;51.534;6.722;2023-04-01T02:07:30;4.63;;;1.10;;
15331;SDS011;7766;51.534;6.722;2023-04-01T02:08:34;3.07;;;1.00;;
15331;SDS011;7766;51.534;6.722;2023-04-01T02:09:42;2.70;;;0.80;;
15331;SDS011;7766;51.534;6.722;2023-04-01T02:10:45;1.30;;;0.70;;
15331;SDS011;7766;51.534;6.722;2023-04-01T02:11:59;2.17;;;0.97;;
15331;SDS011;7766;51.534;6.722;2023-04-01T02:13:05;0.80;;;0.77;;
15331;SDS011;7766;51.534;6.722;2023-04-01T02:14:19;1.80;;;0.97;;
15331;SDS011;7766;51.534;6.722;2023-04-01T02:15:23;1.80;;;0.70;;
15331;SDS011;7766;51.534;6.722;2023-04-01T02:16:27;1.70;;;0.60;;
15331;SDS011;7766;51.534;6.722;2023-04-01T02:17:34;2.13;;;0.70;;
15331;SDS011;7766;51.534;6.722;2023-04-01T02:18:39;1.47;;;0.90;;
15331;SDS011;7766;51.534;6.722;2023-04-01T02:19:52;1.33;;;0.80;;
15331;SDS011;7766;51.534;6.722;2023-04-01T02:20:59;1.33;;;0.80;;
15331;SDS011;7766;51.534;6.722;2023-04-01T02:22:01;3.10;;;1.63;;
15331;SDS011;7766;51.534;6.722;2023-04-01T02:23:04;1.50;;;0.73;;
15331;SDS011;7766;51.534;6.722;2023-04-01T02:24:08;2.50;;;0.70;;
15331;SDS011;7766;51.534;6.722;2023-04-01T02:25:14;2.20;;;0.70;;
15331;SDS011;7766;51.534;6.722;2023-04-01T02:26:19;1.00;;;0.90;;
15331;SDS011;7766;51.534;6.722;2023-04-01T02:27:22;2.07;;;0.60;;
15331;SDS011;7766;51.534;6.722;2023-04-01T02:28:24;2.70;;;1.10;;
15331;SDS011;7766;51.534;6.722;2023-04-01T02:29:28;2.77;;;0.70;;
15331;SDS011;7766;51.534;6.722;2023-04-01T02:30:29;1.43;;;0.90;;
15331;SDS011;7766;51.534;6.722;2023-04-01T02:31:33;0.97;;;0.70;;
15331;SDS011;7766;51.534;6.722;2023-04-01T02:32:35;1.87;;;1.07;;
15331;SDS011;7766;51.534;6.722;2023-04-01T02:33:39;2.20;;;0.80;;
15331;SDS011;7766;51.534;6.722;2023-04-01T02:34:40;0.80;;;0.57;;
15331;SDS011;7766;51.534;6.722;2023-04-01T02:35:43;1.90;;;0.77;;
15331;SDS011;7766;51.534;6.722;2023-04-01T02:36:44;1.43;;;0.57;;
15331;SDS011;7766;51.534;6.722;2023-04-01T02:37:45;1.20;;;0.80;;
15331;SDS011;7766;51.534;6.722;2023-04-01T02:38:49;1.83;;;0.60;;
15331;SDS011;7766;51.534;6.722;2023-04-01T02:39:52;2.50;;;0.50;;
15331;SDS011;7766;51.534;6.722;2023-04-01T02:40:57;2.63;;;0.73;;
15331;SDS011;7766;51.534;6.722;2023-04-01T02:41:59;4.77;;;0.70;;
15331;SDS011;7766;51.534;6.722;2023-04-01T02:43:00;3.60;;;0.90;;
15331;SDS011;7766;51.534;6.722;2023-04-01T02:44:01;1.67;;;0.50;;
15331;SDS011;7766;51.534;6.722;2023-04-01T02:45:03;2.03;;;0.70;;
15331;SDS011;7766;51.534;6.722;2023-04-01T02:46:05;1.00;;;0.57;;
15331;SDS011;7766;51.534;6.722;2023-04-01T02:47:06;1.63;;;0.90;;
15331;SDS011;7766;51.534;6.722;2023-04-01T02:48:07;1.43;;;0.60;;
15331;SDS011;7766;51.534;6.722;2023-04-01T02:49:08;1.07;;;0.60;;
15331;SDS011;7766;51.534;6.722;2023-04-01T02:50:10;0.90;;;0.60;;
15331;SDS011;7766;51.534;6.722;2023-04-01T02:51:11;0.90;;;0.60;;
15331;SDS011;7766;51.534;6.722;2023-04-01T02:52:12;0.60;;;0.60;;
15331;SDS011;7766;51.534;6.722;2023-04-01T02:53:13;2.00;;;0.67;;
15331;SDS011;7766;51.534;6.722;2023-04-01T02:54:14;0.67;;;0.67;;
15331;SDS011;7766;51.534;6.722;2023-04-01T02:55:15;4.33;;;0.90;;
15331;SDS011;7766;51.534;6.722;2023-04-01T02:56:16;2.23;;;0.80;;
15331;SDS011;7766;51.534;6.722;2023-04-01T02:57:17;0.77;;;0.70;;
15331;SDS011;7766;51.534;6.722;2023-04-01T02:58:18;1.53;;;0.70;;
15331;SDS011;7766;51.534;6.722;2023-04-01T02:59:19;1.23;;;0.60;;
15331;SDS011;7766;51.534;6.722;2023-04-01T03:00:20;1.13;;;0.60;;
15331;SDS011;7766;51.534;6.722;2023-04-01T03:01:22;2.83;;;1.00;;
15331;SDS011;7766;51.534;6.722;2023-04-01T03:02:23;1.27;;;0.70;;
15331;SDS011;7766;51.534;6.722;2023-04-01T03:03:24;1.00;;;0.50;;
15331;SDS011;7766;51.534;6.722;2023-04-01T03:04:25;1.23;;;0.60;;
15331;SDS011;7766;51.534;6.722;2023-04-01T03:05:26;2.07;;;0.60;;
15331;SDS011;7766;51.534;6.722;2023-04-01T03:06:27;2.00;;;0.77;;
15331;SDS011;7766;51.534;6.722;2023-04-01T03:07:28;0.77;;;0.60;;
15331;SDS011;7766;51.534;6.722;2023-04-01T03:08:28;2.23;;;0.87;;
15331;SDS011;7766;51.534;6.722;2023-04-01T03:09:29;0.70;;;0.60;;
15331;SDS011;7766;51.534;6.722;2023-04-01T03:10:30;1.73;;;0.77;;
15331;SDS011;7766;51.534;6.722;2023-04-01T03:11:32;1.13;;;0.73;;
15331;SDS011;7766;51.534;6.722;2023-04-01T03:12:33;1.10;;;0.90;;
15331;SDS011;7766;51.534;6.722;2023-04-01T03:13:33;1.90;;;1.10;;
15331;SDS011;7766;51.534;6.722;2023-04-01T03:14:34;2.03;;;0.80;;
15331;SDS011;7766;51.534;6.722;2023-04-01T03:15:35;1.10;;;1.00;;
15331;SDS011;7766;51.534;6.722;2023-04-01T03:16:37;1.83;;;1.07;;
15331;SDS011;7766;51.534;6.722;2023-04-01T03:17:38;1.47;;;1.00;;
15331;SDS011;7766;51.534;6.722;2023-04-01T03:18:39;1.70;;;1.07;;
15331;SDS011;7766;51.534;6.722;2023-04-01T03:19:41;1.37;;;1.10;;
15331;SDS011;7766;51.534;6.722;2023-04-01T03:20:42;2.20;;;1.13;;
15331;SDS011;7766;51.534;6.722;2023-04-01T03:21:43;2.70;;;1.17;;
15331;SDS011;7766;51.534;6.722;2023-04-01T03:22:44;2.13;;;1.33;;
15331;SDS011;7766;51.534;6.722;2023-04-01T03:23:45;2.23;;;1.40;;
15331;SDS011;7766;51.534;6.722;2023-04-01T03:24:47;1.20;;;1.10;;
15331;SDS011;7766;51.534;6.722;2023-04-01T03:25:48;3.50;;;1.40;;
15331;SDS011;7766;51.534;6.722;2023-04-01T03:26:49;1.60;;;1.47;;
15331;SDS011;7766;51.534;6.722;2023-04-01T03:27:50;1.10;;;1.00;;
15331;SDS011;7766;51.534;6.722;2023-04-01T03:28:51;2.57;;;1.30;;
15331;SDS011;7766;51.534;6.722;2023-04-01T03:29:52;2.20;;;1.40;;
15331;SDS011;7766;51.534;6.722;2023-04-01T03:30:53;1.70;;;1.20;;
15331;SDS011;7766;51.534;6.722;2023-04-01T03:31:54;2.57;;;1.13;;
15331;SDS011;7766;51.534;6.722;2023-04-01T03:32:57;1.57;;;1.07;;
15331;SDS011;7766;51.534;6.722;2023-04-01T03:33:59;2.13;;;1.20;;
15331;SDS011;7766;51.534;6.722;2023-04-01T03:35:02;1.80;;;1.43;;
15331;SDS011;7766;51.534;6.722;2023-04-01T03:36:03;2.90;;;1.60;;
15331;SDS011;7766;51.534;6.722;2023-04-01T03:37:06;1.60;;;1.50;;
15331;SDS011;7766;51.534;6.722;2023-04-01T03:38:07;1.73;;;1.27;;
15331;SDS011;7766;51.534;6.722;2023-04-01T03:39:08;3.33;;;1.50;;
15331;SDS011;7766;51.534;6.722;2023-04-01T03:40:09;3.03;;;1.70;;
15331;SDS011;7766;51.534;6.722;2023-04-01T03:41:11;1.80;;;1.47;;
15331;SDS011;7766;51.534;6.722;2023-04-01T03:42:13;2.60;;;1.53;;
15331;SDS011;7766;51.534;6.722;2023-04-01T03:43:14;2.00;;;1.83;;
15331;SDS011;7766;51.534;6.722;2023-04-01T03:44:16;2.30;;;1.60;;
15331;SDS011;7766;51.534;6.722;2023-04-01T03:45:17;1.80;;;1.40;;
15331;SDS011;7766;51.534;6.722;2023-04-01T03:46:19;1.80;;;1.60;;
15331;SDS011;7766;51.534;6.722;2023-04-01T03:47:20;2.17;;;1.80;;
15331;SDS011;7766;51.534;6.722;2023-04-01T03:48:21;1.40;;;1.30;;
15331;SDS011;7766;51.534;6.722;2023-04-01T03:49:22;2.97;;;2.10;;
15331;SDS011;7766;51.534;6.722;2023-04-01T03:50:23;2.27;;;2.00;;
15331;SDS011;7766;51.534;6.722;2023-04-01T03:51:24;3.50;;;2.10;;
15331;SDS011;7766;51.534;6.722;2023-04-01T03:52:25;3.23;;;2.10;;
15331;SDS011;7766;51.534;6.722;2023-04-01T03:53:26;3.30;;;2.37;;
15331;SDS011;7766;51.534;6.722;2023-04-01T03:54:27;2.40;;;2.20;;
15331;SDS011;7766;51.534;6.722;2023-04-01T03:55:28;3.40;;;2.57;;
15331;SDS011;7766;51.534;6.722;2023-04-01T03:56:29;3.20;;;2.17;;
15331;SDS011;7766;51.534;6.722;2023-04-01T03:57:31;3.70;;;2.07;;
15331;SDS011;7766;51.534;6.722;2023-04-01T03:58:32;2.60;;;2.10;;
15331;SDS011;7766;51.534;6.722;2023-04-01T03:59:33;3.57;;;2.30;;
15331;SDS011;7766;51.534;6.722;2023-04-01T04:00:34;2.37;;;2.07;;
15331;SDS011;7766;51.534;6.722;2023-04-01T04:01:35;3.63;;;2.43;;
15331;SDS011;7766;51.534;6.722;2023-04-01T04:02:36;2.73;;;2.03;;
15331;SDS011;7766;51.534;6.722;2023-04-01T04:03:37;2.30;;;2.07;;
15331;SDS011;7766;51.534;6.722;2023-04-01T04:04:39;2.20;;;2.00;;
15331;SDS011;7766;51.534;6.722;2023-04-01T04:05:47;2.37;;;2.13;;
15331;SDS011;7766;51.534;6.722;2023-04-01T04:06:49;2.50;;;2.20;;
15331;SDS011;7766;51.534;6.722;2023-04-01T04:07:51;3.43;;;2.17;;
15331;SDS011;7766;51.534;6.722;2023-04-01T04:08:52;2.23;;;2.03;;
15331;SDS011;7766;51.534;6.722;2023-04-01T04:09:53;2.73;;;2.20;;
15331;SDS011;7766;51.534;6.722;2023-04-01T04:10:55;2.63;;;2.10;;
15331;SDS011;7766;51.534;6.722;2023-04-01T04:11:56;2.60;;;2.30;;
15331;SDS011;7766;51.534;6.722;2023-04-01T04:12:57;1.97;;;1.67;;
15331;SDS011;7766;51.534;6.722;2023-04-01T04:13:58;3.23;;;2.10;;
15331;SDS011;7766;51.534;6.722;2023-04-01T04:15:00;1.70;;;1.60;;
15331;SDS011;7766;51.534;6.722;2023-04-01T04:16:01;3.77;;;2.10;;
15331;SDS011;7766;51.534;6.722;2023-04-01T04:17:05;1.97;;;1.70;;
15331;SDS011;7766;51.534;6.722;2023-04-01T04:18:08;3.80;;;1.90;;
15331;SDS011;7766;51.534;6.722;2023-04-01T04:19:09;3.20;;;2.13;;
15331;SDS011;7766;51.534;6.722;2023-04-01T04:20:10;1.83;;;1.60;;
15331;SDS011;7766;51.534;6.722;2023-04-01T04:21:12;2.87;;;2.57;;
15331;SDS011;7766;51.534;6.722;2023-04-01T04:22:14;7.30;;;4.00;;
15331;SDS011;7766;51.534;6.722;2023-04-01T04:23:15;3.03;;;2.17;;
15331;SDS011;7766;51.534;6.722;2023-04-01T04:24:17;3.37;;;2.23;;
15331;SDS011;7766;51.534;6.722;2023-04-01T04:25:18;3.10;;;2.13;;
15331;SDS011;7766;51.534;6.722;2023-04-01T04:26:19;4.70;;;2.70;;
15331;SDS011;7766;51.534;6.722;2023-04-01T04:27:20;4.17;;;2.47;;
15331;SDS011;7766;51.534;6.722;2023-04-01T04:28:21;2.50;;;2.30;;
15331;SDS011;7766;51.534;6.722;2023-04-01T04:29:22;2.70;;;2.50;;
15331;SDS011;7766;51.534;6.722;2023-04-01T04:30:23;8.03;;;4.10;;
15331;SDS011;7766;51.534;6.722;2023-04-01T04:31:24;5.07;;;3.37;;
15331;SDS011;7766;51.534;6.722;2023-04-01T04:32:25;3.17;;;2.43;;
15331;SDS011;7766;51.534;6.722;2023-04-01T04:33:27;2.53;;;2.20;;
15331;SDS011;7766;51.534;6.722;2023-04-01T04:34:28;3.87;;;2.80;;
15331;SDS011;7766;51.534;6.722;2023-04-01T04:35:29;2.13;;;1.93;;
15331;SDS011;7766;51.534;6.722;2023-04-01T04:36:30;2.77;;;2.10;;
15331;SDS011;7766;51.534;6.722;2023-04-01T04:37:31;2.47;;;2.27;;
15331;SDS011;7766;51.534;6.722;2023-04-01T04:38:32;3.20;;;2.30;;
15331;SDS011;7766;51.534;6.722;2023-04-01T04:39:33;3.13;;;2.57;;
15331;SDS011;7766;51.534;6.722;2023-04-01T04:40:36;5.70;;;2.87;;
15331;SDS011;7766;51.534;6.722;2023-04-01T04:41:37;3.37;;;2.83;;
15331;SDS011;7766;51.534;6.722;2023-04-01T04:42:38;3.50;;;2.67;;
15331;SDS011;7766;51.534;6.722;2023-04-01T04:43:39;2.93;;;2.50;;
15331;SDS011;7766;51.534;6.722;2023-04-01T04:44:41;3.47;;;2.20;;
15331;SDS011;7766;51.534;6.722;2023-04-01T04:45:42;4.27;;;2.67;;
15331;SDS011;7766;51.534;6.722;2023-04-01T04:46:43;4.70;;;2.47;;
15331;SDS011;7766;51.534;6.722;2023-04-01T04:47:44;3.57;;;2.37;;
15331;SDS011;7766;51.534;6.722;2023-04-01T04:48:45;4.13;;;2.67;;
15331;SDS011;7766;51.534;6.722;2023-04-01T04:49:47;3.23;;;2.30;;
15331;SDS011;7766;51.534;6.722;2023-04-01T04:50:48;3.97;;;2.53;;
15331;SDS011;7766;51.534;6.722;2023-04-01T04:51:50;4.23;;;2.90;;
15331;SDS011;7766;51.534;6.722;2023-04-01T04:52:52;2.57;;;2.37;;
15331;SDS011;7766;51.534;6.722;2023-04-01T04:53:53;3.57;;;2.70;;
15331;SDS011;7766;51.534;6.722;2023-04-01T04:54:54;2.93;;;2.63;;
15331;SDS011;7766;51.534;6.722;2023-04-01T04:55:55;3.00;;;2.70;;
15331;SDS011;7766;51.534;6.722;2023-04-01T04:56:56;3.77;;;2.40;;
15331;SDS011;7766;51.534;6.722;2023-04-01T04:57:57;2.87;;;2.27;;
15331;SDS011;7766;51.534;6.722;2023-04-01T04:58:58;4.03;;;2.40;;
15331;SDS011;7766;51.534;6.722;2023-04-01T04:59:59;2.90;;;2.40;;
15331;SDS011;7766;51.534;6.722;2023-04-01T05:01:07;3.00;;;2.30;;
15331;SDS011;7766;51.534;6.722;2023-04-01T05:02:10;3.17;;;2.63;;
15331;SDS011;7766;51.534;6.722;2023-04-01T05:03:12;3.20;;;2.30;;
15331;SDS011;7766;51.534;6.722;2023-04-01T05:04:13;6.10;;;2.80;;
15331;SDS011;7766;51.534;6.722;2023-04-01T05:05:14;3.07;;;2.63;;
15331;SDS011;7766;51.534;6.722;2023-04-01T05:06:16;3.07;;;2.67;;
15331;SDS011;7766;51.534;6.722;2023-04-01T05:07:17;2.87;;;2.33;;
15331;SDS011;7766;51.534;6.722;2023-04-01T05:08:18;3.80;;;2.67;;
15331;SDS011;7766;51.534;6.722;2023-04-01T05:09:20;4.17;;;2.63;;
15331;SDS011;7766;51.534;6.722;2023-04-01T05:10:21;2.90;;;2.60;;
15331;SDS011;7766;51.534;6.722;2023-04-01T05:11:22;3.10;;;2.30;;
15331;SDS011;7766;51.534;6.722;2023-04-01T05:12:23;3.00;;;2.33;;
15331;SDS011;7766;51.534;6.722;2023-04-01T05:13:24;2.70;;;2.43;;
15331;SDS011;7766;51.534;6.722;2023-04-01T05:14:25;3.40;;;2.73;;
15331;SDS011;7766;51.534;6.722;2023-04-01T05:15:26;2.80;;;2.30;;
15331;SDS011;7766;51.534;6.722;2023-04-01T05:16:27;3.33;;;2.60;;
15331;SDS011;7766;51.534;6.722;2023-04-01T05:17:28;4.47;;;2.40;;
15331;SDS011;7766;51.534;6.722;2023-04-01T05:18:29;2.60;;;2.30;;
15331;SDS011;7766;51.534;6.722;2023-04-01T05:19:30;3.27;;;2.50;;
15331;SDS011;7766;51.534;6.722;2023-04-01T05:20:30;3.00;;;2.40;;
15331;SDS011;7766;51.534;6.722;2023-04-01T05:21:31;3.23;;;2.63;;
15331;SDS011;7766;51.534;6.722;2023-04-01T05:22:32;4.90;;;3.23;;
15331;SDS011;7766;51.534;6.722;2023-04-01T05:23:33;3.77;;;3.00;;
15331;SDS011;7766;51.534;6.722;2023-04-01T05:24:34;3.20;;;2.83;;
15331;SDS011;7766;51.534;6.722;2023-04-01T05:25:37;2.70;;;2.50;;
15331;SDS011;7766;51.534;6.722;2023-04-01T05:26:38;4.90;;;2.67;;
15331;SDS011;7766;51.534;6.722;2023-04-01T05:27:39;2.60;;;2.40;;
15331;SDS011;7766;51.534;6.722;2023-04-01T05:28:40;3.30;;;2.40;;
15331;SDS011;7766;51.534;6.722;2023-04-01T05:29:42;3.80;;;2.57;;
15331;SDS011;7766;51.534;6.722;2023-04-01T05:30:43;4.10;;;3.07;;
15331;SDS011;7766;51.534;6.722;2023-04-01T05:31:44;3.17;;;2.40;;
15331;SDS011;7766;51.534;6.722;2023-04-01T05:32:45;2.90;;;2.10;;
15331;SDS011;7766;51.534;6.722;2023-04-01T05:33:46;2.67;;;2.30;;
15331;SDS011;7766;51.534;6.722;2023-04-01T05:34:49;2.93;;;2.27;;
15331;SDS011;7766;51.534;6.722;2023-04-01T05:35:51;3.80;;;2.70;;
15331;SDS011;7766;51.534;6.722;2023-04-01T05:36:52;3.83;;;2.70;;
15331;SDS011;7766;51.534;6.722;2023-04-01T05:37:53;3.37;;;2.23;;
15331;SDS011;7766;51.534;6.722;2023-04-01T05:38:55;2.40;;;2.20;;
15331;SDS011;7766;51.534;6.722;2023-04-01T05:39:56;3.70;;;2.40;;
15331;SDS011;7766;51.534;6.722;2023-04-01T05:40:59;3.30;;;2.83;;
15331;SDS011;7766;51.534;6.722;2023-04-01T05:42:00;4.10;;;2.73;;
15331;SDS011;7766;51.534;6.722;2023-04-01T05:43:01;3.20;;;2.90;;
15331;SDS011;7766;51.534;6.722;2023-04-01T05:44:03;3.10;;;2.70;;
15331;SDS011;7766;51.534;6.722;2023-04-01T05:45:04;4.83;;;2.63;;
15331;SDS011;7766;51.534;6.722;2023-04-01T05:46:06;3.40;;;3.10;;
15331;SDS011;7766;51.534;6.722;2023-04-01T05:47:07;5.03;;;2.83;;
15331;SDS011;7766;51.534;6.722;2023-04-01T05:48:08;3.47;;;2.70;;
15331;SDS011;7766;51.534;6.722;2023-04-01T05:49:09;3.23;;;2.83;;
15331;SDS011;7766;51.534;6.722;2023-04-01T05:50:10;3.70;;;2.70;;
15331;SDS011;7766;51.534;6.722;2023-04-01T05:51:12;3.47;;;2.90;;
15331;SDS011;7766;51.534;6.722;2023-04-01T05:52:14;5.03;;;3.43;;
15331;SDS011;7766;51.534;6.722;2023-04-01T05:53:15;3.00;;;2.70;;
15331;SDS011;7766;51.534;6.722;2023-04-01T05:54:17;3.30;;;3.00;;
15331;SDS011;7766;51.534;6.722;2023-04-01T05:55:18;3.30;;;2.90;;
15331;SDS011;7766;51.534;6.722;2023-04-01T05:56:19;4.53;;;3.37;;
15331;SDS011;7766;51.534;6.722;2023-04-01T05:57:20;3.90;;;3.50;;
15331;SDS011;7766;51.534;6.722;2023-04-01T05:58:22;5.00;;;2.93;;
15331;SDS011;7766;51.534;6.722;2023-04-01T05:59:23;3.60;;;2.93;;
15331;SDS011;7766;51.534;6.722;2023-04-01T06:00:24;3.80;;;2.80;;
15331;SDS011;7766;51.534;6.722;2023-04-01T06:01:25;2.80;;;2.50;;
15331;SDS011;7766;51.534;6.722;2023-04-01T06:02:26;4.00;;;3.50;;
15331;SDS011;7766;51.534;6.722;2023-04-01T06:03:27;3.40;;;3.10;;
15331;SDS011;7766;51.534;6.722;2023-04-01T06:04:28;4.87;;;3.40;;
15331;SDS011;7766;51.534;6.722;2023-04-01T06:05:40;2.90;;;2.60;;
15331;SDS011;7766;51.534;6.722;2023-04-01T06:06:43;4.33;;;3.13;;
15331;SDS011;7766;51.534;6.722;2023-04-01T06:07:45;3.40;;;3.10;;
15331;SDS011;7766;51.534;6.722;2023-04-01T06:08:46;4.07;;;3.47;;
15331;SDS011;7766;51.534;6.722;2023-04-01T06:09:48;4.03;;;3.53;;
15331;SDS011;7766;51.534;6.722;2023-04-01T06:11:12;5.10;;;3.73;;
15331;SDS011;7766;51.534;6.722;2023-04-01T06:12:29;3.97;;;3.20;;
15331;SDS011;7766;51.534;6.722;2023-04-01T06:16:37;3.57;;;3.20;;
15331;SDS011;7766;51.534;6.722;2023-04-01T06:19:40;3.93;;;3.53;;
15331;SDS011;7766;51.534;6.722;2023-04-01T06:20:50;3.97;;;3.57;;
15331;SDS011;7766;51.534;6.722;2023-04-01T06:22:08;4.53;;;3.37;;
15331;SDS011;7766;51.534;6.722;2023-04-01T06:23:24;4.13;;;3.73;;
15331;SDS011;7766;51.534;6.722;2023-04-01T06:50:44;4.50;;;3.90;;
15331;SDS011;7766;51.534;6.722;2023-04-01T06:51:47;4.87;;;3.90;;
15331;SDS011;7766;51.534;6.722;2023-04-01T06:54:45;5.03;;;4.53;;
15331;SDS011;7766;51.534;6.722;2023-04-01T06:55:53;5.13;;;4.50;;
15331;SDS011;7766;51.534;6.722;2023-04-01T06:58:34;6.60;;;4.73;;
15331;SDS011;7766;51.534;6.722;2023-04-01T06:59:41;5.43;;;4.17;;
15331;SDS011;7766;51.534;6.722;2023-04-01T07:00:44;4.43;;;4.03;;
15331;SDS011;7766;51.534;6.722;2023-04-01T07:01:52;4.07;;;3.67;;
15331;SDS011;7766;51.534;6.722;2023-04-01T07:04:39;4.50;;;3.80;;
15331;SDS011;7766;51.534;6.722;2023-04-01T07:05:40;4.43;;;4.03;;
15331;SDS011;7766;51.534;6.722;2023-04-01T07:06:44;4.70;;;4.20;;
15331;SDS011;7766;51.534;6.722;2023-04-01T07:07:52;4.47;;;3.87;;
15331;SDS011;7766;51.534;6.722;2023-04-01T07:08:58;4.30;;;3.63;;
15331;SDS011;7766;51.534;6.722;2023-04-01T07:10:04;4.53;;;4.13;;
15331;SDS011;7766;51.534;6.722;2023-04-01T07:11:11;4.43;;;4.03;;
15331;SDS011;7766;51.534;6.722;2023-04-01T07:14:51;5.87;;;3.50;;